Time;durP1;ratioP1;P1;durP2;ratioP2;P2;SDS_P1;SDS_P2;PMS_P1;PMS_P2;Temp;Humidity;BMP_temperature;BMP_pressure;BME280_temperature;BME280_humidity;BME280_pressure;Samples;Min_cycle;Max_cycle;Signal;HPM_P1;HPM_P2
2023/08/24 00:01:33;;;;;;;5.55;3.72;;;16.50;99.90;;;;;;7375359;19;20497;-61
2023/08/24 00:04:01;;;;;;;5.55;3.67;;;16.50;99.90;;;;;;7379717;19;20042;-61
2023/08/24 00:06:27;;;;;;;5.28;3.92;;;16.50;99.90;;;;;;7375599;19;20449;-61
2023/08/24 00:08:54;;;;;;;4.82;3.45;;;16.40;99.90;;;;;;7378306;19;20022;-62
2023/08/24 00:11:20;;;;;;;4.70;3.30;;;16.30;99.90;;;;;;7378832;19;20036;-62
2023/08/24 00:13:49;;;;;;;5.63;3.30;;;16.20;99.90;;;;;;7377569;19;20011;-61
2023/08/24 00:16:17;;;;;;;7.53;4.15;;;16.10;99.90;;;;;;7376569;19;20022;-61
2023/08/24 00:18:44;;;;;;;6.30;4.07;;;16.00;99.90;;;;;;7374841;19;20090;-61
2023/08/24 00:21:12;;;;;;;6.13;3.88;;;16.00;99.90;;;;;;7379507;19;20025;-62
2023/08/24 00:23:39;;;;;;;11.75;5.18;;;16.00;99.90;;;;;;7381275;19;20015;-62
2023/08/24 00:26:06;;;;;;;5.85;4.18;;;16.00;99.90;;;;;;7378392;19;20324;-62
2023/08/24 00:28:32;;;;;;;5.97;4.07;;;16.00;99.90;;;;;;7377449;19;20350;-62
2023/08/24 00:30:58;;;;;;;6.40;4.00;;;15.90;99.90;;;;;;7376692;19;20014;-62
2023/08/24 00:33:24;;;;;;;6.80;4.18;;;16.00;99.90;;;;;;7377714;19;20031;-61
2023/08/24 00:35:50;;;;;;;7.88;4.72;;;16.00;99.90;;;;;;7376758;19;20014;-65
2023/08/24 00:38:17;;;;;;;7.20;5.65;;;16.00;99.90;;;;;;7372485;19;20500;-62
2023/08/24 00:40:43;;;;;;;7.13;4.90;;;16.00;99.90;;;;;;7379512;19;20039;-60
2023/08/24 00:43:10;;;;;;;6.43;4.55;;;16.00;99.90;;;;;;7378583;19;20011;-62
2023/08/24 00:45:36;;;;;;;9.75;4.90;;;16.00;99.90;;;;;;7374897;19;20096;-62
2023/08/24 00:48:04;;;;;;;6.45;4.75;;;16.00;99.90;;;;;;7374295;19;20021;-61
2023/08/24 00:50:31;;;;;;;6.05;4.85;;;16.00;99.90;;;;;;7376470;19;20729;-61
2023/08/24 00:52:57;;;;;;;8.18;4.85;;;16.00;99.90;;;;;;7373845;19;20055;-61
2023/08/24 00:55:23;;;;;;;6.53;5.47;;;16.10;99.90;;;;;;7375877;19;20018;-61
2023/08/24 00:57:51;;;;;;;6.65;5.45;;;16.10;99.90;;;;;;7375896;19;20026;-63
2023/08/24 01:00:17;;;;;;;5.97;4.90;;;16.10;99.90;;;;;;7377976;19;20019;-62
2023/08/24 01:02:43;;;;;;;7.47;5.72;;;16.00;99.90;;;;;;7372091;19;20637;-62
2023/08/24 01:05:10;;;;;;;5.63;4.90;;;16.00;99.90;;;;;;7373855;19;20022;-61
2023/08/24 01:07:39;;;;;;;6.43;5.78;;;15.90;99.90;;;;;;7374985;19;20015;-62
2023/08/24 01:10:09;;;;;;;6.22;5.32;;;16.00;99.90;;;;;;7371759;19;20375;-61
2023/08/24 01:12:50;;;;;;;9.63;5.93;;;15.90;99.90;;;;;;7370933;19;20397;-63
2023/08/24 01:15:46;;;;;;;6.53;5.32;;;15.90;99.90;;;;;;7367062;19;20025;-63
2023/08/24 01:18:19;;;;;;;9.32;5.65;;;16.00;99.90;;;;;;7360202;19;20018;-64
2023/08/24 01:20:46;;;;;;;8.73;5.93;;;16.00;99.90;;;;;;7370934;19;20014;-63
2023/08/24 01:23:33;;;;;;;8.27;5.88;;;16.10;99.90;;;;;;7367072;19;20022;-64
2023/08/24 01:26:16;;;;;;;7.72;5.97;;;16.10;99.90;;;;;;7368984;19;20020;-64
2023/08/24 01:28:45;;;;;;;5.95;5.22;;;16.10;99.90;;;;;;7368810;19;20018;-64
2023/08/24 01:31:13;;;;;;;9.38;5.68;;;16.10;99.90;;;;;;7362739;19;20456;-64
2023/08/24 01:33:40;;;;;;;8.43;5.60;;;16.10;99.90;;;;;;7365018;19;20014;-64
2023/08/24 01:36:08;;;;;;;7.88;6.10;;;16.10;99.90;;;;;;7369200;19;20010;-64
2023/08/24 01:38:34;;;;;;;8.80;5.68;;;16.10;99.90;;;;;;7367158;19;20486;-64
2023/08/24 01:41:03;;;;;;;7.57;5.45;;;16.10;99.90;;;;;;7369786;19;20097;-65
2023/08/24 01:43:33;;;;;;;9.75;5.97;;;16.10;99.90;;;;;;7371423;19;20030;-62
2023/08/24 01:46:02;;;;;;;8.48;5.90;;;16.10;99.90;;;;;;7372834;19;20015;-63
2023/08/24 01:48:30;;;;;;;7.80;5.32;;;16.00;99.90;;;;;;7367195;19;20593;-62
2023/08/24 01:50:58;;;;;;;6.43;5.43;;;16.10;99.90;;;;;;7371637;19;20006;-63
2023/08/24 01:53:28;;;;;;;8.30;5.45;;;16.00;99.90;;;;;;7371225;19;20021;-62
2023/08/24 01:55:54;;;;;;;9.55;5.85;;;16.10;99.90;;;;;;7374200;19;20021;-62
2023/08/24 01:58:20;;;;;;;10.85;5.75;;;16.10;99.90;;;;;;7369153;19;20014;-62
2023/08/24 02:00:47;;;;;;;7.53;5.07;;;16.10;99.90;;;;;;7371779;19;20416;-62
2023/08/24 02:03:14;;;;;;;8.65;5.80;;;16.20;99.90;;;;;;7371008;19;20018;-62
2023/08/24 02:05:40;;;;;;;9.90;5.47;;;16.20;99.90;;;;;;7369803;19;20018;-62
2023/08/24 02:08:06;;;;;;;8.75;5.68;;;16.20;99.90;;;;;;7368188;19;20018;-64
2023/08/24 02:10:32;;;;;;;7.80;5.38;;;16.20;99.90;;;;;;7370689;19;20082;-62
2023/08/24 02:12:58;;;;;;;8.88;5.75;;;16.20;99.90;;;;;;7370692;19;20371;-62
2023/08/24 02:15:28;;;;;;;10.98;6.22;;;16.20;99.90;;;;;;7370862;19;20335;-62
2023/08/24 02:17:55;;;;;;;12.20;6.00;;;16.20;99.90;;;;;;7370062;19;20018;-62
2023/08/24 02:20:22;;;;;;;9.30;5.47;;;16.20;99.90;;;;;;7370198;19;20018;-61
2023/08/24 02:22:48;;;;;;;9.55;5.50;;;16.20;99.90;;;;;;7370266;19;20014;-61
2023/08/24 02:25:15;;;;;;;8.82;5.63;;;16.20;99.90;;;;;;7372292;19;20042;-62
2023/08/24 02:27:42;;;;;;;8.02;5.80;;;16.10;99.90;;;;;;7372721;19;20019;-62
2023/08/24 02:30:08;;;;;;;12.82;6.72;;;16.10;99.90;;;;;;7382017;19;20014;-62
2023/08/24 02:32:35;;;;;;;9.90;6.07;;;16.20;99.90;;;;;;7376357;19;20526;-64
2023/08/24 02:35:01;;;;;;;8.85;6.30;;;16.20;99.90;;;;;;7378354;19;20070;-64
2023/08/24 02:37:30;;;;;;;8.65;6.75;;;16.20;99.90;;;;;;7373187;19;20014;-64
2023/08/24 02:39:57;;;;;;;9.90;6.40;;;16.20;99.90;;;;;;7376941;19;20020;-63
2023/08/24 02:42:23;;;;;;;10.77;6.18;;;16.20;99.90;;;;;;7378210;19;20489;-63
2023/08/24 02:44:49;;;;;;;8.60;6.32;;;16.20;99.90;;;;;;7368020;19;20596;-63
2023/08/24 02:47:18;;;;;;;8.15;6.22;;;16.20;99.90;;;;;;7376532;19;20014;-64
2023/08/24 02:49:46;;;;;;;10.45;6.10;;;16.20;99.90;;;;;;7374950;19;20485;-65
2023/08/24 02:52:12;;;;;;;8.93;6.35;;;16.20;99.90;;;;;;7375430;19;20010;-64
2023/08/24 02:54:39;;;;;;;8.88;6.40;;;16.20;99.90;;;;;;7374825;19;20388;-64
2023/08/24 02:57:05;;;;;;;7.95;6.47;;;16.20;99.90;;;;;;7375038;19;20023;-64
2023/08/24 02:59:34;;;;;;;12.15;6.97;;;16.30;99.90;;;;;;7375014;19;20018;-63
2023/08/24 03:02:00;;;;;;;9.07;6.75;;;16.30;99.90;;;;;;7374174;19;20024;-63
2023/08/24 03:04:27;;;;;;;8.65;6.72;;;16.30;99.90;;;;;;7373206;19;20010;-64
2023/08/24 03:06:53;;;;;;;9.80;6.57;;;16.20;99.90;;;;;;7371326;19;20025;-64
2023/08/24 03:09:19;;;;;;;11.15;7.07;;;16.20;99.90;;;;;;7371833;19;20321;-63
2023/08/24 03:11:45;;;;;;;12.73;7.45;;;16.30;99.90;;;;;;7374724;19;20752;-63
2023/08/24 03:14:12;;;;;;;13.52;7.82;;;16.20;99.90;;;;;;7376610;19;20014;-63
2023/08/24 03:16:39;;;;;;;11.13;8.13;;;16.20;99.90;;;;;;7371870;19;20035;-63
2023/08/24 03:19:05;;;;;;;13.23;8.63;;;16.20;99.90;;;;;;7371111;19;20034;-63
2023/08/24 03:21:32;;;;;;;12.13;8.40;;;16.20;99.90;;;;;;7370315;19;20018;-64
2023/08/24 03:23:59;;;;;;;11.48;8.50;;;16.20;99.90;;;;;;7376551;19;20039;-64
2023/08/24 03:26:26;;;;;;;15.05;8.02;;;16.10;99.90;;;;;;7371449;19;20026;-64
2023/08/24 03:28:56;;;;;;;12.07;7.65;;;16.10;99.90;;;;;;7372226;19;20512;-64
2023/08/24 03:31:24;;;;;;;10.75;7.88;;;16.00;99.90;;;;;;7374368;19;20014;-64
2023/08/24 03:33:50;;;;;;;15.23;8.88;;;16.00;99.90;;;;;;7373998;19;20026;-64
2023/08/24 03:36:17;;;;;;;11.05;7.78;;;15.90;99.90;;;;;;7372346;19;20514;-64
2023/08/24 03:38:45;;;;;;;13.10;9.65;;;15.90;99.90;;;;;;7374408;19;20031;-64
2023/08/24 03:41:11;;;;;;;13.90;9.70;;;15.90;99.90;;;;;;7374119;19;20025;-64
2023/08/24 03:43:39;;;;;;;11.45;8.25;;;15.90;99.90;;;;;;7372934;19;20474;-63
2023/08/24 03:46:05;;;;;;;11.82;9.40;;;15.90;99.90;;;;;;7372151;19;20020;-64
2023/08/24 03:48:32;;;;;;;12.18;8.48;;;15.90;99.90;;;;;;7372806;19;20673;-64
2023/08/24 03:51:01;;;;;;;12.43;8.32;;;15.90;99.90;;;;;;7370317;19;20010;-64
2023/08/24 03:53:32;;;;;;;13.55;8.68;;;15.80;99.90;;;;;;7371836;19;20359;-63
2023/08/24 03:55:58;;;;;;;12.38;8.63;;;15.80;99.90;;;;;;7371307;19;20514;-64
2023/08/24 03:58:26;;;;;;;10.90;8.18;;;15.80;99.90;;;;;;7374388;19;20018;-63
2023/08/24 04:00:54;;;;;;;10.18;8.52;;;15.70;99.90;;;;;;7372718;19;20737;-63
2023/08/24 04:03:20;;;;;;;8.82;7.93;;;15.60;99.90;;;;;;7370799;19;20018;-64
2023/08/24 04:05:46;;;;;;;11.35;8.57;;;15.60;99.90;;;;;;7371000;19;20018;-64
2023/08/24 04:08:13;;;;;;;11.70;9.07;;;15.60;99.90;;;;;;7371243;19;20026;-64
2023/08/24 04:10:39;;;;;;;11.27;8.48;;;15.50;99.90;;;;;;7370478;19;20029;-64
2023/08/24 04:13:05;;;;;;;11.63;9.05;;;15.50;99.90;;;;;;7370003;19;20533;-64
2023/08/24 04:15:31;;;;;;;13.38;10.70;;;15.50;99.90;;;;;;7371202;19;20240;-64
2023/08/24 04:17:58;;;;;;;12.60;9.07;;;15.40;99.90;;;;;;7374729;19;20048;-62
2023/08/24 04:20:27;;;;;;;13.32;9.07;;;15.40;99.90;;;;;;7374975;19;20109;-62
2023/08/24 04:22:54;;;;;;;12.20;9.18;;;15.40;99.90;;;;;;7376435;19;20086;-64
2023/08/24 04:25:41;;;;;;;14.30;9.65;;;15.40;99.90;;;;;;7377305;19;20025;-61
2023/08/24 04:28:07;;;;;;;14.00;10.63;;;15.30;99.90;;;;;;7373897;19;20018;-62
2023/08/24 04:30:34;;;;;;;13.60;10.32;;;15.30;99.90;;;;;;7376745;19;20370;-62
2023/08/24 04:33:00;;;;;;;13.27;11.65;;;15.30;99.90;;;;;;7375109;19;20011;-62
2023/08/24 04:35:26;;;;;;;12.50;10.88;;;15.30;99.90;;;;;;7376842;19;20019;-61
2023/08/24 04:37:53;;;;;;;11.02;9.88;;;15.30;99.90;;;;;;7373892;19;20456;-62
2023/08/24 04:40:20;;;;;;;12.88;10.55;;;15.20;99.90;;;;;;7370561;19;20014;-62
2023/08/24 04:42:46;;;;;;;15.88;11.15;;;15.20;99.90;;;;;;7372816;19;20025;-62
2023/08/24 04:45:12;;;;;;;12.07;10.15;;;15.30;99.90;;;;;;7375111;19;20112;-61
2023/08/24 04:47:38;;;;;;;15.75;11.32;;;15.30;99.90;;;;;;7371495;19;20026;-61
2023/08/24 04:50:05;;;;;;;11.43;9.82;;;15.20;99.90;;;;;;7372164;19;20031;-62
2023/08/24 04:52:32;;;;;;;13.25;11.07;;;15.20;99.90;;;;;;7373195;19;20014;-64
2023/08/24 04:54:58;;;;;;;13.43;10.88;;;15.20;99.90;;;;;;7369596;19;20110;-64
2023/08/24 04:57:24;;;;;;;12.48;11.15;;;15.30;99.90;;;;;;7373989;19;20081;-65
2023/08/24 04:59:50;;;;;;;14.85;12.02;;;15.20;99.90;;;;;;7367497;19;20015;-64
2023/08/24 05:02:17;;;;;;;12.50;11.23;;;15.30;99.90;;;;;;7372154;19;20557;-64
2023/08/24 05:04:43;;;;;;;12.57;10.90;;;15.30;99.90;;;;;;7369502;19;20572;-63
2023/08/24 05:07:09;;;;;;;16.88;11.68;;;15.30;99.90;;;;;;7368840;19;20019;-63
2023/08/24 05:09:36;;;;;;;13.48;10.95;;;15.30;99.90;;;;;;7368892;19;20694;-63
2023/08/24 05:12:02;;;;;;;14.52;11.30;;;15.40;99.90;;;;;;7370453;19;20014;-64
2023/08/24 05:14:28;;;;;;;15.90;10.93;;;15.40;99.90;;;;;;7370447;19;20334;-63
2023/08/24 05:16:58;;;;;;;13.40;10.40;;;15.40;99.90;;;;;;7353381;19;20427;-64
2023/08/24 05:19:24;;;;;;;11.80;10.50;;;15.50;99.90;;;;;;7362966;19;20030;-64
2023/08/24 05:21:50;;;;;;;16.83;11.50;;;15.50;99.90;;;;;;7367436;19;20055;-64
2023/08/24 05:24:16;;;;;;;12.95;11.27;;;15.60;99.90;;;;;;7367743;19;20367;-65
2023/08/24 05:26:42;;;;;;;13.32;10.00;;;15.70;99.90;;;;;;7367554;19;20034;-65
2023/08/24 05:29:09;;;;;;;15.13;10.27;;;15.80;99.90;;;;;;7367225;19;20102;-65
2023/08/24 05:31:35;;;;;;;11.90;9.90;;;15.90;99.90;;;;;;7360418;19;20014;-65
2023/08/24 05:34:02;;;;;;;14.88;9.93;;;16.10;99.90;;;;;;7365810;19;20022;-61
2023/08/24 05:36:28;;;;;;;11.27;10.10;;;16.10;99.90;;;;;;7362372;19;20018;-64
2023/08/24 05:38:56;;;;;;;13.45;9.82;;;16.20;99.90;;;;;;7361196;19;20015;-59
2023/08/24 05:41:22;;;;;;;9.90;8.52;;;16.20;99.90;;;;;;7362611;19;20027;-63
2023/08/24 05:43:48;;;;;;;15.43;9.60;;;16.30;99.90;;;;;;7359262;19;20107;-62
2023/08/24 05:46:15;;;;;;;10.82;8.90;;;16.20;99.90;;;;;;7364378;19;20018;-64
2023/08/24 05:48:41;;;;;;;13.93;8.73;;;16.20;99.90;;;;;;7366344;19;20152;-64
2023/08/24 05:51:09;;;;;;;15.07;9.35;;;16.40;99.90;;;;;;7365213;19;20118;-63
2023/08/24 05:53:35;;;;;;;10.98;8.02;;;16.50;99.90;;;;;;7365128;19;20029;-62
2023/08/24 05:56:01;;;;;;;11.05;7.68;;;16.70;99.90;;;;;;7370232;19;20528;-63
2023/08/24 05:58:28;;;;;;;9.48;7.53;;;16.90;99.90;;;;;;7363333;19;20055;-63
2023/08/24 06:00:58;;;;;;;10.23;7.22;;;17.00;99.90;;;;;;7369145;19;20053;-62
2023/08/24 06:03:26;;;;;;;113.32;102.03;;;17.10;99.90;;;;;;7364549;19;21202;-62
2023/08/24 06:05:53;;;;;;;11.23;7.03;;;17.50;99.90;;;;;;7365296;19;20344;-61
2023/08/24 06:08:20;;;;;;;13.93;6.72;;;17.70;99.90;;;;;;7362051;19;20464;-64
2023/08/24 06:10:46;;;;;;;9.20;5.82;;;17.90;99.90;;;;;;7371983;19;20026;-64
2023/08/24 06:13:12;;;;;;;9.18;5.85;;;18.00;99.90;;;;;;7378721;19;20022;-64
2023/08/24 06:15:38;;;;;;;10.85;5.35;;;18.10;99.90;;;;;;7363962;19;20036;-61
2023/08/24 06:18:04;;;;;;;9.18;5.45;;;18.40;99.90;;;;;;7367401;19;20037;-60
2023/08/24 06:20:31;;;;;;;9.10;4.45;;;18.60;99.90;;;;;;7368721;19;20078;-61
2023/08/24 06:22:57;;;;;;;7.35;5.05;;;18.80;99.90;;;;;;7364816;19;20386;-60
2023/08/24 06:25:23;;;;;;;7.70;4.90;;;18.80;99.90;;;;;;7361206;19;20035;-60
2023/08/24 06:27:49;;;;;;;12.70;4.95;;;18.80;99.90;;;;;;7361726;19;20521;-61
2023/08/24 06:30:16;;;;;;;7.22;4.75;;;18.80;99.90;;;;;;7367268;19;20496;-61
2023/08/24 06:32:43;;;;;;;8.77;5.35;;;18.70;99.90;;;;;;7362380;19;20011;-62
2023/08/24 06:35:09;;;;;;;6.35;4.85;;;18.60;99.90;;;;;;7368900;19;20544;-61
2023/08/24 06:37:35;;;;;;;8.10;5.43;;;18.70;99.90;;;;;;7356150;19;20010;-61
2023/08/24 06:40:04;;;;;;;8.65;5.28;;;18.80;99.90;;;;;;7366393;19;20098;-60
2023/08/24 06:42:30;;;;;;;9.93;5.75;;;18.90;99.90;;;;;;7363076;19;20060;-60
2023/08/24 06:44:56;;;;;;;7.65;5.47;;;19.00;99.90;;;;;;7370826;19;20018;-61
2023/08/24 06:47:22;;;;;;;9.45;5.85;;;19.40;99.90;;;;;;7360307;19;20572;-61
2023/08/24 06:49:49;;;;;;;7.75;6.00;;;19.50;99.90;;;;;;7384639;19;20031;-66
2023/08/24 06:52:15;;;;;;;9.63;6.15;;;19.50;99.90;;;;;;7393265;19;20025;-66
2023/08/24 06:54:41;;;;;;;10.43;6.40;;;19.60;99.90;;;;;;7388016;19;20082;-61
2023/08/24 06:57:07;;;;;;;13.30;6.63;;;19.80;99.90;;;;;;7365599;19;20533;-60
2023/08/24 06:59:34;;;;;;;9.43;6.63;;;19.90;99.90;;;;;;7362829;19;20014;-61
2023/08/24 07:02:00;;;;;;;10.38;7.80;;;20.20;99.90;;;;;;7368814;19;20106;-65
2023/08/24 07:04:28;;;;;;;9.77;7.03;;;20.50;99.90;;;;;;7372877;19;20026;-67
2023/08/24 07:06:54;;;;;;;11.05;7.53;;;20.70;99.90;;;;;;7368148;19;20036;-63
2023/08/24 07:09:20;;;;;;;23.27;20.88;;;21.10;99.90;;;;;;7363245;19;20022;-64
2023/08/24 07:11:48;;;;;;;12.27;8.20;;;21.20;99.90;;;;;;7365188;19;20023;-62
2023/08/24 07:14:14;;;;;;;17.20;13.65;;;21.40;99.90;;;;;;7384296;19;20014;-67
2023/08/24 07:16:40;;;;;;;8.48;7.28;;;21.50;99.90;;;;;;7385319;19;20470;-68
2023/08/24 07:19:07;;;;;;;11.60;8.15;;;21.80;99.90;;;;;;7385361;19;20018;-68
2023/08/24 07:21:33;;;;;;;10.35;7.32;;;21.90;99.90;;;;;;7379306;19;20476;-68
2023/08/24 07:24:02;;;;;;;13.23;10.27;;;22.10;99.90;;;;;;7384410;19;20038;-68
2023/08/24 07:26:30;;;;;;;10.52;7.65;;;22.20;99.90;;;;;;7386456;19;20020;-68
2023/08/24 07:28:56;;;;;;;11.90;8.23;;;22.40;99.90;;;;;;7384787;19;20396;-67
2023/08/24 07:31:23;;;;;;;11.93;7.20;;;22.50;99.90;;;;;;7378632;19;20350;-68
2023/08/24 07:33:50;;;;;;;10.50;7.22;;;22.60;99.90;;;;;;7385846;19;20031;-68
2023/08/24 07:36:16;;;;;;;10.52;6.55;;;22.90;99.90;;;;;;7383783;19;20007;-68
2023/08/24 07:38:42;;;;;;;12.60;10.23;;;23.10;99.90;;;;;;7381720;19;20022;-68
2023/08/24 07:41:09;;;;;;;10.32;7.05;;;23.40;99.90;;;;;;7385053;19;20015;-67
2023/08/24 07:43:35;;;;;;;10.82;7.13;;;23.80;99.90;;;;;;7377692;19;20019;-67
2023/08/24 07:46:01;;;;;;;10.95;6.82;;;24.00;99.90;;;;;;7379130;19;20021;-68
2023/08/24 07:48:28;;;;;;;10.35;6.85;;;24.30;99.90;;;;;;7370267;19;20014;-68
2023/08/24 07:50:54;;;;;;;10.50;7.20;;;24.50;99.90;;;;;;7378628;19;20018;-62
2023/08/24 07:53:23;;;;;;;9.13;6.32;;;24.70;99.90;;;;;;7375847;19;20007;-62
2023/08/24 07:55:49;;;;;;;11.32;8.80;;;24.50;99.90;;;;;;7372780;19;20025;-62
2023/08/24 07:58:15;;;;;;;9.32;7.00;;;24.70;99.90;;;;;;7373728;19;20513;-62
2023/08/24 08:00:42;;;;;;;10.02;7.55;;;24.80;99.90;;;;;;7373329;19;20026;-60
2023/08/24 08:03:08;;;;;;;11.07;8.38;;;25.00;99.90;;;;;;7374335;19;20021;-60
2023/08/24 08:05:34;;;;;;;9.63;7.10;;;25.10;99.90;;;;;;7372022;19;20016;-61
2023/08/24 08:08:00;;;;;;;11.35;10.15;;;25.30;99.90;;;;;;7370113;19;21026;-61
2023/08/24 08:10:26;;;;;;;10.13;7.18;;;25.80;99.90;;;;;;7375741;19;20577;-60
2023/08/24 08:12:53;;;;;;;12.75;7.07;;;26.00;99.90;;;;;;7372320;19;20014;-60
2023/08/24 08:15:19;;;;;;;8.90;7.18;;;25.80;99.90;;;;;;7377654;19;20010;-67
2023/08/24 08:17:49;;;;;;;10.10;8.10;;;25.70;99.90;;;;;;7371086;19;20043;-60
2023/08/24 08:20:16;;;;;;;12.03;8.37;;;25.90;99.90;;;;;;7374623;19;20007;-66
2023/08/24 08:22:42;;;;;;;11.52;7.55;;;25.90;99.90;;;;;;7367887;19;20500;-61
2023/08/24 08:25:08;;;;;;;10.68;7.10;;;26.40;99.90;;;;;;7378680;19;20049;-66
2023/08/24 08:27:34;;;;;;;12.38;8.80;;;26.70;99.90;;;;;;7367291;19;20046;-60
2023/08/24 08:30:01;;;;;;;9.63;8.00;;;26.90;99.90;;;;;;7372441;19;20018;-61
2023/08/24 08:32:27;;;;;;;9.60;8.60;;;26.80;99.90;;;;;;7373660;19;20340;-61
2023/08/24 08:34:56;;;;;;;11.52;7.93;;;26.90;99.90;;;;;;7371302;19;20014;-61
2023/08/24 08:37:23;;;;;;;9.00;7.20;;;27.00;99.90;;;;;;7376535;19;20059;-60
2023/08/24 08:39:49;;;;;;;11.13;7.43;;;27.20;99.90;;;;;;7372374;19;20021;-61
2023/08/24 08:42:15;;;;;;;9.38;8.43;;;27.00;99.90;;;;;;7376072;19;20485;-61
2023/08/24 08:44:45;;;;;;;12.50;8.88;;;27.30;99.90;;;;;;7368424;19;20538;-61
2023/08/24 08:47:12;;;;;;;9.40;8.32;;;26.90;99.90;;;;;;7374798;19;20018;-61
2023/08/24 08:49:47;;;;;;;8.98;7.95;;;27.30;99.90;;;;;;7371968;19;20121;-62
2023/08/24 08:52:13;;;;;;;8.20;7.40;;;27.60;99.90;;;;;;7374194;19;20026;-60
2023/08/24 08:54:40;;;;;;;9.77;7.55;;;27.70;99.90;;;;;;7366990;19;20021;-61
2023/08/24 08:57:06;;;;;;;11.27;8.20;;;27.90;99.90;;;;;;7372516;19;20464;-62
2023/08/24 08:59:33;;;;;;;10.02;7.47;;;27.90;99.90;;;;;;7372743;19;20152;-61
2023/08/24 09:02:03;;;;;;;10.50;8.95;;;27.90;99.90;;;;;;7372180;19;20537;-61
2023/08/24 09:04:31;;;;;;;12.20;9.27;;;27.70;99.90;;;;;;7371103;19;20011;-62
2023/08/24 09:06:57;;;;;;;10.15;9.05;;;27.30;99.90;;;;;;7369579;19;20023;-61
2023/08/24 09:09:26;;;;;;;11.50;8.30;;;27.30;99.90;;;;;;7366904;19;21331;-62
2023/08/24 09:11:53;;;;;;;11.90;7.75;;;27.20;99.90;;;;;;7371330;19;20109;-61
2023/08/24 09:14:19;;;;;;;10.45;8.82;;;27.10;99.90;;;;;;7370290;19;20034;-61
2023/08/24 09:16:45;;;;;;;13.23;8.98;;;26.80;99.90;;;;;;7367862;19;20014;-61
2023/08/24 09:19:12;;;;;;;12.15;9.55;;;26.70;99.90;;;;;;7371034;19;20015;-61
2023/08/24 09:21:41;;;;;;;11.73;8.48;;;26.70;99.90;;;;;;7373242;19;20030;-61
2023/08/24 09:24:08;;;;;;;11.75;9.05;;;26.60;99.90;;;;;;7368008;19;20017;-61
2023/08/24 09:26:37;;;;;;;12.68;9.48;;;26.60;99.90;;;;;;7368893;19;20025;-61
2023/08/24 09:29:21;;;;;;;10.48;8.30;;;26.70;99.90;;;;;;7370235;19;20474;-60
2023/08/24 09:31:50;;;;;;;11.52;8.80;;;26.80;99.90;;;;;;7371542;19;20046;-61
2023/08/24 09:34:22;;;;;;;10.00;8.15;;;26.80;99.90;;;;;;7370254;19;20029;-61
2023/08/24 09:36:50;;;;;;;13.80;7.60;;;27.00;99.90;;;;;;7372330;19;20529;-61
2023/08/24 09:39:19;;;;;;;14.07;8.77;;;26.90;99.90;;;;;;7373181;19;20014;-61
2023/08/24 09:41:52;;;;;;;10.45;7.30;;;26.80;99.90;;;;;;7371938;19;20090;-61
2023/08/24 09:44:18;;;;;;;9.98;7.28;;;26.70;99.90;;;;;;7372264;19;20049;-61
2023/08/24 09:46:45;;;;;;;11.15;7.65;;;26.50;99.90;;;;;;7372789;19;20568;-61
2023/08/24 09:49:12;;;;;;;10.45;9.25;;;26.10;99.90;;;;;;7374418;19;20443;-61
2023/08/24 09:51:41;;;;;;;9.95;7.68;;;26.00;99.90;;;;;;7372352;19;20061;-61
2023/08/24 09:54:09;;;;;;;8.45;7.28;;;25.70;99.90;;;;;;7374126;19;20011;-61
2023/08/24 09:56:41;;;;;;;13.65;7.35;;;25.40;99.90;;;;;;7371991;19;20486;-61
2023/08/24 09:59:14;;;;;;;10.30;7.85;;;25.20;99.90;;;;;;7373774;19;20014;-60
2023/08/24 10:01:48;;;;;;;13.15;8.63;;;25.20;99.90;;;;;;7371432;19;20018;-61
2023/08/24 10:04:19;;;;;;;10.55;8.40;;;25.00;99.90;;;;;;7370846;19;20014;-61
2023/08/24 10:06:49;;;;;;;10.73;7.78;;;25.00;99.90;;;;;;7371804;19;20018;-61
2023/08/24 10:09:24;;;;;;;10.48;8.35;;;25.00;99.90;;;;;;7371518;19;20017;-61
2023/08/24 10:11:58;;;;;;;12.63;7.93;;;24.90;99.90;;;;;;7375316;19;20021;-61
2023/08/24 10:14:35;;;;;;;14.73;8.65;;;24.70;99.90;;;;;;7373054;19;20379;-61
2023/08/24 10:17:02;;;;;;;12.55;7.88;;;24.70;99.90;;;;;;7370857;19;20014;-61
2023/08/24 10:19:30;;;;;;;10.80;8.43;;;24.70;99.90;;;;;;7368601;19;20500;-61
2023/08/24 10:21:59;;;;;;;12.85;8.05;;;24.50;99.90;;;;;;7373175;19;20011;-61
2023/08/24 10:24:26;;;;;;;10.90;9.60;;;24.50;99.90;;;;;;7372489;19;20014;-61
2023/08/24 10:26:54;;;;;;;10.20;8.13;;;24.60;99.90;;;;;;7373287;19;20416;-60
2023/08/24 10:29:21;;;;;;;12.52;8.52;;;24.50;99.90;;;;;;7371829;19;20015;-61
2023/08/24 10:31:49;;;;;;;11.63;9.23;;;24.40;99.90;;;;;;7370269;19;20018;-60
2023/08/24 10:34:16;;;;;;;12.07;8.98;;;24.40;99.90;;;;;;7371783;19;20018;-61
2023/08/24 10:36:42;;;;;;;10.75;9.13;;;24.40;99.90;;;;;;7369467;19;20011;-61
2023/08/24 10:39:10;;;;;;;9.82;8.60;;;24.40;99.90;;;;;;7373431;19;20517;-60
2023/08/24 10:41:52;;;;;;;12.18;9.57;;;24.30;99.90;;;;;;7371459;19;20018;-60
2023/08/24 10:44:24;;;;;;;12.13;9.10;;;24.50;99.90;;;;;;7371289;19;20048;-60
2023/08/24 10:47:18;;;;;;;10.55;8.95;;;24.40;99.90;;;;;;7379468;19;20021;-65
2023/08/24 10:49:57;;;;;;;10.02;8.35;;;24.50;99.90;;;;;;7381873;19;20019;-67
2023/08/24 10:52:25;;;;;;;12.05;8.30;;;24.50;99.90;;;;;;7379976;19;20022;-61
2023/08/24 10:54:53;;;;;;;11.13;8.88;;;24.50;99.90;;;;;;7379136;19;20021;-60
2023/08/24 10:57:21;;;;;;;10.02;8.95;;;24.50;99.90;;;;;;7380598;19;20492;-61
2023/08/24 11:00:10;;;;;;;15.98;8.38;;;24.60;99.90;;;;;;7380040;19;20078;-60
2023/08/24 11:02:49;;;;;;;11.05;7.95;;;24.70;99.90;;;;;;7380038;19;20018;-61
2023/08/24 11:05:33;;;;;;;11.13;8.07;;;24.90;99.90;;;;;;7380760;19;20015;-65
2023/08/24 11:08:00;;;;;;;10.13;8.20;;;24.90;99.90;;;;;;7381676;19;20018;-66
2023/08/24 11:10:46;;;;;;;12.45;9.35;;;25.00;99.90;;;;;;7379572;19;20490;-67
2023/08/24 11:13:14;;;;;;;10.73;8.40;;;25.30;99.90;;;;;;7379596;19;20538;-67
2023/08/24 11:15:43;;;;;;;9.82;8.93;;;25.40;99.90;;;;;;7375795;19;20523;-67
2023/08/24 11:18:18;;;;;;;12.02;8.52;;;25.60;99.90;;;;;;7375906;19;20054;-67
2023/08/24 11:20:46;;;;;;;15.23;10.73;;;25.90;99.90;;;;;;7377152;19;20867;-61
2023/08/24 11:23:13;;;;;;;13.73;8.95;;;26.10;99.90;;;;;;7379007;19;20558;-61
2023/08/24 11:25:39;;;;;;;12.75;9.40;;;26.10;99.90;;;;;;7377026;19;20035;-60
2023/08/24 11:28:05;;;;;;;12.75;8.20;;;26.00;99.90;;;;;;7377533;19;20053;-61
2023/08/24 11:30:33;;;;;;;12.07;9.05;;;26.00;99.90;;;;;;7377027;19;20030;-61
2023/08/24 11:33:03;;;;;;;12.10;10.23;;;26.10;99.90;;;;;;7378366;19;20119;-61
2023/08/24 11:35:34;;;;;;;11.50;10.40;;;26.10;99.90;;;;;;7377555;19;20104;-61
2023/08/24 11:38:01;;;;;;;11.20;9.27;;;26.20;99.90;;;;;;7376314;19;20589;-61
2023/08/24 11:40:28;;;;;;;14.30;10.73;;;26.20;99.90;;;;;;7375333;19;20026;-61
2023/08/24 11:42:57;;;;;;;12.00;9.75;;;26.20;99.90;;;;;;7379387;19;20425;-61
2023/08/24 11:45:29;;;;;;;11.52;9.18;;;26.40;99.90;;;;;;7375573;19;20021;-61
2023/08/24 11:47:57;;;;;;;10.77;9.05;;;26.40;99.90;;;;;;7380562;19;20354;-61
2023/08/24 11:50:24;;;;;;;9.75;8.35;;;26.40;99.90;;;;;;7378970;19;20018;-61
2023/08/24 11:52:50;;;;;;;13.32;8.50;;;26.30;99.90;;;;;;7376431;19;20391;-61
2023/08/24 11:55:16;;;;;;;12.77;8.13;;;26.40;99.90;;;;;;7375204;19;20014;-62
2023/08/24 11:57:43;;;;;;;9.13;7.45;;;26.40;99.90;;;;;;7378583;19;20395;-61
2023/08/24 12:00:13;;;;;;;10.98;8.48;;;26.40;99.90;;;;;;7375382;19;20070;-61
2023/08/24 12:02:43;;;;;;;12.40;7.57;;;26.30;99.90;;;;;;7378907;19;20018;-61
2023/08/24 12:05:21;;;;;;;9.77;7.22;;;26.20;99.90;;;;;;7376095;19;20486;-61
2023/08/24 12:07:48;;;;;;;10.25;7.38;;;26.20;99.90;;;;;;7374324;19;20383;-61
2023/08/24 12:10:14;;;;;;;8.20;7.05;;;26.20;99.90;;;;;;7379788;19;20039;-62
2023/08/24 12:12:40;;;;;;;10.35;7.80;;;26.00;99.90;;;;;;7374947;19;20367;-61
2023/08/24 12:15:07;;;;;;;8.30;7.13;;;25.90;99.90;;;;;;7377540;19;20022;-61
2023/08/24 12:17:43;;;;;;;11.27;7.53;;;25.90;99.90;;;;;;7374151;19;20018;-61
2023/08/24 12:20:21;;;;;;;10.63;7.18;;;26.00;99.90;;;;;;7377131;19;20018;-62
2023/08/24 12:22:55;;;;;;;9.20;7.15;;;26.00;99.90;;;;;;7376008;19;20014;-62
2023/08/24 12:25:25;;;;;;;7.80;6.60;;;26.10;99.90;;;;;;7374621;19;20412;-62
2023/08/24 12:27:55;;;;;;;10.27;7.03;;;26.20;99.90;;;;;;7377230;19;20416;-61
2023/08/24 12:30:21;;;;;;;7.50;6.68;;;26.40;99.90;;;;;;7377233;19;20051;-61
2023/08/24 12:32:50;;;;;;;11.48;6.80;;;26.60;99.90;;;;;;7374613;19;20034;-61
2023/08/24 12:35:17;;;;;;;8.75;6.85;;;26.80;99.90;;;;;;7375754;19;20438;-61
2023/08/24 12:37:44;;;;;;;10.73;7.10;;;26.80;99.90;;;;;;7374287;19;20021;-62
2023/08/24 12:40:10;;;;;;;10.82;6.78;;;26.90;99.90;;;;;;7376727;19;20007;-61
2023/08/24 12:42:38;;;;;;;8.68;7.35;;;26.80;99.90;;;;;;7376027;19;20356;-61